createdAt,value
2023-02-02T00:02:02.166Z,101990.97
2023-02-02T00:04:34.283Z,101999.91
2023-02-02T00:07:01.902Z,101997.13
2023-02-02T00:09:31.029Z,101997.13
2023-02-02T00:11:58.948Z,101995.31
2023-02-02T00:14:25.630Z,101993.47
2023-02-02T00:16:56.317Z,101997.91
2023-02-02T00:19:27.307Z,101995.13
2023-02-02T00:21:54.934Z,101987.91
2023-02-02T00:24:22.123Z,101993.28
2023-02-02T00:26:52.557Z,102001.28
2023-02-02T00:29:23.825Z,101997.63
2023-02-02T00:31:50.982Z,101993.13
2023-02-02T00:34:18.260Z,101997.53
2023-02-02T00:36:47.418Z,101996.75
2023-02-02T00:39:22.807Z,102003.88
2023-02-02T00:41:49.362Z,102006.50
2023-02-02T00:44:34.309Z,102010.03
2023-02-02T00:47:01.170Z,102009.28
2023-02-02T00:49:27.650Z,102012.16
2023-02-02T00:51:54.212Z,102005.03
2023-02-02T00:54:20.903Z,102008.66
2023-02-02T00:56:47.515Z,102005.13
2023-02-02T00:59:14.093Z,102005.97
2023-02-02T01:01:40.641Z,101996.94
2023-02-02T01:04:07.634Z,102005.03
2023-02-02T01:06:34.479Z,102001.47
2023-02-02T01:09:01.570Z,101998.78
2023-02-02T01:11:28.379Z,102000.59
2023-02-02T01:13:54.906Z,101994.34
2023-02-02T01:16:22.491Z,101990.78
2023-02-02T01:18:50.740Z,101999.72
2023-02-02T01:21:17.439Z,101991.66
2023-02-02T01:23:44.131Z,101994.34
2023-02-02T01:26:12.441Z,102008.66
2023-02-02T01:28:39.562Z,102000.69
2023-02-02T01:31:18.036Z,101998.84
2023-02-02T01:33:45.989Z,101997.03
2023-02-02T01:36:16.506Z,102004.16
2023-02-02T01:38:43.843Z,102010.41
2023-02-02T01:41:14.950Z,102002.34
2023-02-02T01:43:41.429Z,101999.63
2023-02-02T01:46:12.281Z,102009.44
2023-02-02T01:48:41.357Z,102008.50
2023-02-02T01:51:11.625Z,101999.63
2023-02-02T01:53:38.299Z,102002.34
2023-02-02T01:56:08.385Z,101995.22
2023-02-02T01:58:39.305Z,102003.28
2023-02-02T02:01:06.686Z,102002.34
2023-02-02T02:03:35.527Z,102005.97
2023-02-02T02:06:05.741Z,102009.53
2023-02-02T02:08:39.814Z,102007.72
2023-02-02T02:11:07.304Z,101998.84
2023-02-02T02:13:57.271Z,102000.59
2023-02-02T02:16:43.437Z,101996.06
2023-02-02T02:20:06.904Z,101993.47
2023-02-02T02:23:15.145Z,101989.06
2023-02-02T02:26:22.366Z,102005.28
2023-02-02T02:29:09.702Z,102000.97
2023-02-02T02:31:55.951Z,102000.97
2023-02-02T02:34:29.805Z,101995.56
2023-02-02T02:37:07.407Z,102002.69
2023-02-02T02:39:45.469Z,101997.31
2023-02-02T02:42:20.019Z,102004.44
2023-02-02T02:44:49.441Z,102005.28
2023-02-02T02:47:18.639Z,102004.44
2023-02-02T02:49:47.451Z,102007.97
2023-02-02T02:52:14.409Z,102007.03
2023-02-02T02:54:48.006Z,102008.94
2023-02-02T02:57:35.671Z,102012.59
2023-02-02T03:00:39.014Z,102013.47
2023-02-02T03:03:22.043Z,102012.59
2023-02-02T03:05:56.076Z,102015.38
2023-02-02T03:08:44.140Z,102005.56
2023-02-02T03:11:12.915Z,102008.25
2023-02-02T03:13:41.679Z,102003.81
2023-02-02T03:16:09.871Z,101994.84
2023-02-02T03:18:36.718Z,102002.06
2023-02-02T03:21:03.775Z,102010.13
2023-02-02T03:23:30.512Z,102000.41
2023-02-02T03:25:57.078Z,101996.06
2023-02-02T03:28:24.509Z,101999.63
2023-02-02T03:30:53.415Z,101990.59
2023-02-02T03:33:20.599Z,101987.03
2023-02-02T03:35:47.444Z,101994.25
2023-02-02T03:38:14.031Z,101992.50
2023-02-02T03:40:41.197Z,101994.44
2023-02-02T03:43:08.217Z,101998.00
2023-02-02T03:45:40.613Z,101996.16
2023-02-02T03:48:07.550Z,101999.81
2023-02-02T03:50:34.432Z,102004.31
2023-02-02T03:53:00.964Z,102004.31
2023-02-02T03:55:27.497Z,102010.66
2023-02-02T03:57:53.953Z,102029.50
2023-02-02T04:00:21.361Z,102034.88
2023-02-02T04:02:47.997Z,102036.72
2023-02-02T04:05:14.725Z,102037.59
2023-02-02T04:07:41.242Z,102042.09
2023-02-02T04:10:08.145Z,102035.66
2023-02-02T04:12:34.655Z,102040.09
2023-02-02T04:15:01.178Z,102044.53
2023-02-02T04:17:27.712Z,102042.78
2023-02-02T04:19:58.131Z,102049.03
2023-02-02T04:22:26.057Z,102039.13
2023-02-02T04:24:52.748Z,102045.31
2023-02-02T04:27:19.456Z,102030.97
2023-02-02T04:29:46.045Z,102033.56
2023-02-02T04:32:15.291Z,102039.84
2023-02-02T04:34:42.208Z,102038.81
2023-02-02T04:37:09.042Z,102037.91
2023-02-02T04:39:35.621Z,102028.06
2023-02-02T04:42:02.748Z,102032.47
2023-02-02T04:44:29.231Z,102034.13
2023-02-02T04:46:55.785Z,102036.03
2023-02-02T04:49:22.337Z,102034.22
2023-02-02T04:51:50.338Z,102027.88
2023-02-02T04:54:16.934Z,102027.88
2023-02-02T04:56:43.734Z,102026.91
2023-02-02T04:59:10.276Z,102024.22
2023-02-02T05:01:36.873Z,102029.44
2023-02-02T05:04:03.464Z,102038.47
2023-02-02T05:06:30.054Z,102030.38
2023-02-02T05:08:56.729Z,102042.97
2023-02-02T05:11:24.110Z,102036.66
2023-02-02T05:13:53.269Z,102034.81
2023-02-02T05:16:21.326Z,102030.31
2023-02-02T05:18:56.916Z,102029.44
2023-02-02T05:21:24.100Z,102031.16
2023-02-02T05:23:50.736Z,102021.34
2023-02-02T05:26:26.201Z,102027.69
2023-02-02T05:28:53.490Z,102026.84
2023-02-02T05:31:20.619Z,102031.34
2023-02-02T05:33:47.288Z,102045.66
2023-02-02T05:36:13.835Z,102048.28
2023-02-02T05:38:42.432Z,102048.38
2023-02-02T05:41:09.057Z,102064.44
2023-02-02T05:43:35.619Z,102058.97
2023-02-02T05:46:02.521Z,102058.09
2023-02-02T05:48:29.159Z,102058.09
2023-02-02T05:51:07.691Z,102052.69
2023-02-02T05:53:34.258Z,102055.31
2023-02-02T05:56:00.846Z,102055.31
2023-02-02T05:58:28.145Z,102054.44
2023-02-02T06:00:56.719Z,102051.75
2023-02-02T06:03:24.027Z,102054.44
2023-02-02T06:05:50.640Z,102062.50
2023-02-02T06:08:17.201Z,102057.13
2023-02-02T06:10:44.195Z,102051.66
2023-02-02T06:13:10.802Z,102050.69
2023-02-02T06:15:37.420Z,102058.78
2023-02-02T06:18:06.130Z,102061.47
2023-02-02T06:20:33.088Z,102058.00
2023-02-02T06:22:59.809Z,102060.59
2023-02-02T06:25:26.781Z,102057.91
2023-02-02T06:28:00.637Z,102064.16
2023-02-02T06:30:27.949Z,102065.91
2023-02-02T06:32:54.723Z,102071.19
2023-02-02T06:35:21.370Z,102063.13
2023-02-02T06:37:48.307Z,102064.06
2023-02-02T06:40:14.982Z,102060.50
2023-02-02T06:42:41.725Z,102073.88
2023-02-02T06:45:08.935Z,102069.38
2023-02-02T06:47:38.262Z,102076.59
2023-02-02T06:50:05.040Z,102087.25
2023-02-02T06:52:31.714Z,102095.34
2023-02-02T06:54:58.230Z,102093.59
2023-02-02T06:57:24.772Z,102098.03
2023-02-02T06:59:52.296Z,102097.94
2023-02-02T07:02:19.063Z,102086.31
2023-02-02T07:04:45.643Z,102093.44
2023-02-02T07:07:12.207Z,102088.13
2023-02-02T07:09:38.747Z,102091.69
2023-02-02T07:12:05.654Z,102099.00
2023-02-02T07:14:32.275Z,102099.94
2023-02-02T07:16:58.815Z,102104.38
2023-02-02T07:19:25.363Z,102106.28
2023-02-02T07:21:51.967Z,102106.38
2023-02-02T07:24:18.616Z,102107.34
2023-02-02T07:26:45.140Z,102110.03
2023-02-02T07:29:16.630Z,102110.03
2023-02-02T07:31:43.251Z,102094.81
2023-02-02T07:34:09.857Z,102103.00
2023-02-02T07:36:36.459Z,102109.34
2023-02-02T07:39:04.899Z,102105.84
2023-02-02T07:41:33.828Z,102109.50
2023-02-02T07:44:00.425Z,102109.59
2023-02-02T07:46:27.270Z,102108.81
2023-02-02T07:48:57.890Z,102112.41
2023-02-02T07:51:25.627Z,102130.34
2023-02-02T07:53:54.620Z,102125.97
2023-02-02T07:56:24.496Z,102134.81
2023-02-02T07:58:52.924Z,102128.56
2023-02-02T08:01:22.685Z,102139.50
2023-02-02T08:03:50.623Z,102138.66
2023-02-02T08:06:29.711Z,102144.13
2023-02-02T08:08:56.394Z,102147.75
2023-02-02T08:11:24.165Z,102145.94
2023-02-02T08:13:59.095Z,102149.59
2023-02-02T08:16:27.325Z,102148.53
2023-02-02T08:18:54.107Z,102148.53
2023-02-02T08:21:21.686Z,102144.97
2023-02-02T08:23:48.542Z,102151.16
2023-02-02T08:26:26.974Z,102153.84
2023-02-02T08:29:00.221Z,102160.88
2023-02-02T08:31:31.035Z,102156.38
2023-02-02T08:34:00.643Z,102165.25
2023-02-02T08:36:28.748Z,102167.88
2023-02-02T08:38:55.506Z,102165.94
2023-02-02T08:41:23.810Z,102172.22
2023-02-02T08:43:51.434Z,102187.41
2023-02-02T08:46:20.456Z,102193.66
2023-02-02T08:48:48.431Z,102191.75
2023-02-02T08:51:18.422Z,102198.88
2023-02-02T08:53:45.687Z,102206.00
2023-02-02T08:56:12.149Z,102212.09
2023-02-02T08:58:39.515Z,102206.59
2023-02-02T09:01:16.515Z,102209.22
2023-02-02T09:03:43.524Z,102218.25
2023-02-02T09:06:12.835Z,102231.63
2023-02-02T09:08:40.077Z,102213.56
2023-02-02T09:11:16.507Z,102235.09
2023-02-02T09:13:51.533Z,102236.84
2023-02-02T09:16:18.774Z,102240.31
2023-02-02T09:18:45.711Z,102242.16
2023-02-02T09:21:16.595Z,102243.88
2023-02-02T09:23:44.557Z,102249.19
2023-02-02T09:26:17.371Z,102246.31
2023-02-02T09:28:47.453Z,102256.06
2023-02-02T09:31:14.922Z,102263.19
2023-02-02T09:33:42.386Z,102259.44
2023-02-02T09:36:14.971Z,102261.19
2023-02-02T09:38:43.224Z,102264.66
2023-02-02T09:41:39.323Z,102272.66
2023-02-02T09:44:45.501Z,102282.22
2023-02-02T09:47:27.336Z,102283.78
2023-02-02T09:50:02.072Z,102286.31
2023-02-02T09:52:37.891Z,102277.28
2023-02-02T09:55:41.225Z,102280.66
2023-02-02T09:58:17.066Z,102288.31
2023-02-02T10:00:50.895Z,102283.72
2023-02-02T10:03:39.137Z,102280.84
2023-02-02T10:06:29.635Z,102290.50
2023-02-02T10:09:03.041Z,102293.06
2023-02-02T10:12:01.910Z,102303.75
2023-02-02T10:14:37.023Z,102293.66
2023-02-02T10:17:20.797Z,102300.69
2023-02-02T10:19:52.871Z,102302.34
2023-02-02T10:22:28.009Z,102307.75
2023-02-02T10:24:57.168Z,102306.69
2023-02-02T10:27:38.627Z,102306.78
2023-02-02T10:30:25.886Z,102309.47
2023-02-02T10:33:03.810Z,102311.22
2023-02-02T10:35:38.914Z,102310.34
2023-02-02T10:38:37.860Z,102315.75
2023-02-02T10:41:32.272Z,102312.09
2023-02-02T10:44:24.423Z,102316.59
2023-02-02T10:46:54.331Z,102312.19
2023-02-02T10:49:36.032Z,102311.31
2023-02-02T10:52:11.358Z,102306.78
2023-02-02T10:55:01.019Z,102310.25
2023-02-02T10:57:51.551Z,102320.88
2023-02-02T11:00:39.862Z,102317.03
2023-02-02T11:03:11.435Z,102324.94
2023-02-02T11:05:56.842Z,102332.09
2023-02-02T11:08:35.304Z,102335.56
2023-02-02T11:11:22.206Z,102334.78
2023-02-02T11:14:07.585Z,102333.81
2023-02-02T11:16:43.254Z,102325.75
2023-02-02T11:19:22.578Z,102325.75
2023-02-02T11:21:53.179Z,102314.94
2023-02-02T11:24:45.950Z,102321.22
2023-02-02T11:27:19.718Z,102323.81
2023-02-02T11:29:48.989Z,102323.81
2023-02-02T11:32:20.310Z,102321.13
2023-02-02T11:34:46.844Z,102322.94
2023-02-02T11:37:21.692Z,102326.50
2023-02-02T11:39:48.433Z,102326.44
2023-02-02T11:42:21.826Z,102312.84
2023-02-02T11:44:57.918Z,102313.72
2023-02-02T11:47:33.190Z,102311.81
2023-02-02T11:50:02.168Z,102309.91
2023-02-02T11:52:33.092Z,102299.09
2023-02-02T11:55:09.069Z,102305.38
2023-02-02T11:57:37.722Z,102309.03
2023-02-02T12:00:10.045Z,102307.09
2023-02-02T12:02:36.886Z,102308.94
2023-02-02T12:05:15.637Z,102310.75
2023-02-02T12:07:45.754Z,102314.25
2023-02-02T12:10:20.254Z,102312.41
2023-02-02T12:13:05.289Z,102308.84
2023-02-02T12:15:40.928Z,102305.19
2023-02-02T12:18:22.496Z,102304.41
2023-02-02T12:20:52.157Z,102314.41
2023-02-02T12:23:54.579Z,102317.13
2023-02-02T12:26:30.323Z,102311.72
2023-02-02T12:29:05.919Z,102310.94
2023-02-02T12:31:48.844Z,102315.56
2023-02-02T12:34:18.102Z,102316.50
2023-02-02T12:37:03.398Z,102314.78
2023-02-02T12:39:55.226Z,102303.19
2023-02-02T12:42:37.065Z,102298.78
2023-02-02T12:45:13.018Z,102299.72
2023-02-02T12:48:02.412Z,102292.59
2023-02-02T12:51:01.335Z,102290.78
2023-02-02T12:53:47.892Z,102284.41
2023-02-02T12:56:44.587Z,102289.72
2023-02-02T12:59:44.763Z,102283.47
2023-02-02T13:02:24.439Z,102278.94
2023-02-02T13:05:21.723Z,102280.69
2023-02-02T13:08:12.600Z,102290.59
2023-02-02T13:10:46.137Z,102295.97
2023-02-02T13:13:17.710Z,102290.69
2023-02-02T13:15:48.819Z,102301.66
2023-02-02T13:18:37.125Z,102298.94
2023-02-02T13:21:19.685Z,102294.44
2023-02-02T13:23:50.387Z,102289.91
2023-02-02T13:26:22.869Z,102296.34
2023-02-02T13:29:02.511Z,102292.88
2023-02-02T13:31:36.949Z,102292.00
2023-02-02T13:34:18.896Z,102299.13
2023-02-02T13:36:52.507Z,102291.13
2023-02-02T13:39:33.303Z,102300.16
2023-02-02T13:42:02.818Z,102286.69
2023-02-02T13:44:38.550Z,102289.47
2023-02-02T13:47:16.689Z,102284.94
2023-02-02T13:49:50.926Z,102288.53
2023-02-02T13:52:36.283Z,102281.38
2023-02-02T13:55:25.262Z,102282.25
2023-02-02T13:58:32.679Z,102280.59
2023-02-02T14:01:10.971Z,102298.59
2023-02-02T14:03:52.978Z,102298.59
2023-02-02T14:06:22.404Z,102301.22
2023-02-02T14:09:02.704Z,102306.59
2023-02-02T14:11:33.039Z,102297.75
2023-02-02T14:14:32.954Z,102309.47
2023-02-02T14:17:02.540Z,102314.78
2023-02-02T14:19:28.983Z,102309.41
2023-02-02T14:22:09.481Z,102315.75
2023-02-02T14:24:35.893Z,102319.31
2023-02-02T14:27:24.198Z,102327.47
2023-02-02T14:29:53.698Z,102318.44
2023-02-02T14:32:29.294Z,102316.69
2023-02-02T14:35:08.101Z,102317.66
2023-02-02T14:37:48.031Z,102320.25
2023-02-02T14:40:46.254Z,102329.31
2023-02-02T14:43:45.019Z,102327.47
2023-02-02T14:46:14.428Z,102326.63
2023-02-02T14:49:07.057Z,102334.78
2023-02-02T14:51:59.046Z,102334.97
2023-02-02T14:54:28.552Z,102339.47
2023-02-02T14:57:06.497Z,102342.34
2023-02-02T14:59:38.019Z,102351.38
2023-02-02T15:02:40.086Z,102343.38
2023-02-02T15:05:28.659Z,102350.59
2023-02-02T15:08:07.905Z,102347.09
2023-02-02T15:10:56.713Z,102343.69
2023-02-02T15:13:37.479Z,102343.94
2023-02-02T15:16:19.313Z,102354.81
2023-02-02T15:18:52.272Z,102353.06
2023-02-02T15:21:21.903Z,102358.47
2023-02-02T15:23:48.619Z,102353.16
2023-02-02T15:26:40.671Z,102355.06
2023-02-02T15:29:16.732Z,102358.56
2023-02-02T15:31:47.346Z,102355.00
2023-02-02T15:34:30.031Z,102355.00
2023-02-02T15:37:05.832Z,102357.78
2023-02-02T15:39:38.134Z,102348.91
2023-02-02T15:42:36.599Z,102353.50
2023-02-02T15:45:04.026Z,102355.50
2023-02-02T15:47:40.670Z,102355.66
2023-02-02T15:50:21.490Z,102365.56
2023-02-02T15:52:50.461Z,102362.00
2023-02-02T15:55:25.278Z,102371.91
2023-02-02T15:57:55.304Z,102366.53
2023-02-02T16:00:24.745Z,102367.41
2023-02-02T16:02:57.780Z,102372.78
2023-02-02T16:05:36.159Z,102373.72
2023-02-02T16:08:07.209Z,102378.25
2023-02-02T16:10:35.241Z,102387.22
2023-02-02T16:13:02.394Z,102388.16
2023-02-02T16:15:31.708Z,102390.84
2023-02-02T16:18:11.772Z,102399.88
2023-02-02T16:20:38.997Z,102399.88
2023-02-02T16:23:12.256Z,102402.66
2023-02-02T16:25:46.886Z,102405.34
2023-02-02T16:28:20.650Z,102404.56
2023-02-02T16:30:48.068Z,102406.41
2023-02-02T16:33:34.064Z,102401.97
2023-02-02T16:36:01.332Z,102409.16
2023-02-02T16:38:31.236Z,102409.34
2023-02-02T16:41:10.997Z,102415.69
2023-02-02T16:43:42.077Z,102420.19
2023-02-02T16:46:12.742Z,102422.00
2023-02-02T16:48:55.486Z,102432.78
2023-02-02T16:51:26.148Z,102432.88
2023-02-02T16:54:11.284Z,102440.06
2023-02-02T16:56:41.700Z,102433.75
2023-02-02T16:59:34.814Z,102425.75
2023-02-02T17:02:16.467Z,102427.56
2023-02-02T17:04:49.315Z,102430.25
2023-02-02T17:07:16.990Z,102433.75
2023-02-02T17:09:46.630Z,102438.19
2023-02-02T17:12:32.020Z,102437.22
2023-02-02T17:15:05.624Z,102443.41
2023-02-02T17:17:32.266Z,102444.19
2023-02-02T17:19:59.075Z,102439.75
2023-02-02T17:22:27.917Z,102445.06
2023-02-02T17:24:54.672Z,102448.69
2023-02-02T17:27:33.883Z,102449.56
2023-02-02T17:30:02.086Z,102449.50
2023-02-02T17:32:28.629Z,102448.53
2023-02-02T17:34:55.681Z,102447.66
2023-02-02T17:37:22.289Z,102461.06
2023-02-02T17:39:50.605Z,102463.84
2023-02-02T17:42:24.769Z,102449.50
2023-02-02T17:44:53.959Z,102447.66
2023-02-02T17:47:27.035Z,102451.31
2023-02-02T17:49:56.723Z,102451.41
2023-02-02T17:52:23.277Z,102460.44
2023-02-02T17:54:49.775Z,102459.56
2023-02-02T17:57:16.406Z,102458.69
2023-02-02T17:59:42.861Z,102454.25
2023-02-02T18:02:15.145Z,102448.94
2023-02-02T18:04:43.662Z,102449.91
2023-02-02T18:07:11.771Z,102457.09
2023-02-02T18:09:38.253Z,102449.91
2023-02-02T18:12:05.035Z,102445.47
2023-02-02T18:14:31.720Z,102441.81
2023-02-02T18:16:58.426Z,102449.91
2023-02-02T18:19:24.931Z,102448.00
2023-02-02T18:21:51.451Z,102435.31
2023-02-02T18:24:17.953Z,102439.84
2023-02-02T18:26:44.484Z,102434.44
2023-02-02T18:29:11.031Z,102430.97
2023-02-02T18:31:37.700Z,102431.03
2023-02-02T18:34:04.483Z,102434.59
2023-02-02T18:36:31.644Z,102429.31
2023-02-02T18:38:58.304Z,102428.34
2023-02-02T18:41:24.849Z,102425.66
2023-02-02T18:43:54.683Z,102427.47
2023-02-02T18:46:21.481Z,102430.09
2023-02-02T18:48:48.118Z,102416.63
2023-02-02T18:51:17.943Z,102425.56
2023-02-02T18:53:45.733Z,102427.41
2023-02-02T18:56:14.511Z,102423.75
2023-02-02T18:58:41.614Z,102418.38
2023-02-02T19:01:15.253Z,102416.63
2023-02-02T19:03:42.222Z,102421.06
2023-02-02T19:06:28.152Z,102430.97
2023-02-02T19:08:55.138Z,102436.44
2023-02-02T19:11:24.342Z,102432.88
2023-02-02T19:13:50.941Z,102432.88
2023-02-02T19:16:27.604Z,102436.44
2023-02-02T19:19:17.279Z,102437.38
2023-02-02T19:21:43.800Z,102439.13
2023-02-02T19:24:12.713Z,102435.56
2023-02-02T19:26:46.146Z,102437.31
2023-02-02T19:29:21.454Z,102439.13
2023-02-02T19:32:04.718Z,102433.66
2023-02-02T19:34:33.379Z,102428.19
2023-02-02T19:37:13.163Z,102424.53
2023-02-02T19:39:40.062Z,102420.91
2023-02-02T19:42:11.347Z,102424.38
2023-02-02T19:44:42.058Z,102423.50
2023-02-02T19:47:26.175Z,102429.78
2023-02-02T19:49:53.116Z,102429.59
2023-02-02T19:52:24.034Z,102427.69
2023-02-02T19:54:54.753Z,102416.94
2023-02-02T19:57:40.676Z,102419.63
2023-02-02T20:00:29.407Z,102415.09
2023-02-02T20:03:07.328Z,102422.22
2023-02-02T20:05:44.723Z,102424.06
2023-02-02T20:08:24.970Z,102416.94
2023-02-02T20:10:54.045Z,102417.78
2023-02-02T20:13:23.424Z,102414.22
2023-02-02T20:15:52.549Z,102422.16
2023-02-02T20:18:40.122Z,102416.75
2023-02-02T20:21:17.819Z,102425.63
2023-02-02T20:23:46.099Z,102425.53
2023-02-02T20:26:28.947Z,102428.25
2023-02-02T20:28:58.796Z,102432.59
2023-02-02T20:31:34.785Z,102432.59
2023-02-02T20:34:02.265Z,102434.34
2023-02-02T20:36:35.092Z,102435.22
2023-02-02T20:39:13.474Z,102440.69
2023-02-02T20:41:39.991Z,102437.91
2023-02-02T20:44:06.490Z,102435.22
2023-02-02T20:46:33.103Z,102441.56
2023-02-02T20:48:59.593Z,102443.22
2023-02-02T20:51:26.109Z,102446.53
2023-02-02T20:53:55.595Z,102449.84
2023-02-02T20:56:23.194Z,102452.22
2023-02-02T20:58:50.606Z,102458.16
2023-02-02T21:01:19.321Z,102459.66
2023-02-02T21:03:45.886Z,102462.97
2023-02-02T21:06:18.643Z,102454.72
2023-02-02T21:08:47.633Z,102449.00
2023-02-02T21:11:14.120Z,102448.81
2023-02-02T21:13:40.649Z,102444.13
2023-02-02T21:16:07.218Z,102441.25
2023-02-02T21:18:33.774Z,102445.59
2023-02-02T21:21:00.367Z,102435.69
2023-02-02T21:23:27.175Z,102441.88
2023-02-02T21:25:53.744Z,102454.41
2023-02-02T21:28:20.274Z,102451.69
2023-02-02T21:30:47.066Z,102456.13
2023-02-02T21:33:13.744Z,102457.09
2023-02-02T21:35:40.227Z,102458.84
2023-02-02T21:38:13.644Z,102452.47
2023-02-02T21:40:40.299Z,102448.75
2023-02-02T21:43:15.685Z,102451.63
2023-02-02T21:45:42.652Z,102458.75
2023-02-02T21:48:28.059Z,102446.31
2023-02-02T21:50:54.551Z,102449.09
2023-02-02T22:43:08.716Z,102439.16
2023-02-02T22:45:35.710Z,102439.31
2023-02-02T22:48:02.337Z,102444.03
2023-02-02T22:50:30.489Z,102449.50
2023-02-02T22:52:57.610Z,102443.31
2023-02-02T22:55:31.530Z,102448.72
2023-02-02T22:57:58.026Z,102443.41
2023-02-02T23:00:30.005Z,102438.09
2023-02-02T23:02:57.318Z,102436.28
2023-02-02T23:05:42.523Z,102446.19
2023-02-02T23:08:09.096Z,102450.53
2023-02-02T23:10:36.010Z,102454.09
2023-02-02T23:13:04.251Z,102450.38
2023-02-02T23:15:33.580Z,102437.84
2023-02-02T23:18:00.453Z,102426.09
2023-02-02T23:20:27.310Z,102423.41
2023-02-02T23:22:54.009Z,102415.31
2023-02-02T23:25:21.902Z,102410.78
2023-02-02T23:27:50.100Z,102398.28
2023-02-02T23:30:17.444Z,102387.50
2023-02-02T23:32:43.941Z,102378.44
2023-02-02T23:35:11.049Z,102364.88
2023-02-02T23:37:39.698Z,102365.75
2023-02-02T23:40:06.955Z,102371.06
2023-02-02T23:42:35.276Z,102370.19
2023-02-02T23:45:02.045Z,102371.22
2023-02-02T23:47:29.648Z,102372.19
2023-02-02T23:49:56.291Z,102362.44
2023-02-02T23:52:23.559Z,102367.03
2023-02-02T23:54:50.180Z,102370.63
2023-02-02T23:57:20.842Z,102377.84
2023-02-02T23:59:47.402Z,102383.22
